Flight Track Log - Related Links

Times and Time Zones

All times are in EST time to prevent confusion due to time zone crossing. See the AMF1324 flight status page for this flight to view local times or setup timezone preferences in your user account.


Time Position Orientation Groundspeed Altitude Reporting Facility
EST Latitude Longitude Course Direction KTS MPH feet Rate Location/Type
Tue 08:20:32 AM 42.1658 -76.0139 291° West 182 209 5,200  Level New York Center
Tue 08:21:31 AM 42.1836 -76.0769 291° West 182 209 7,300 1,800 Climbing New York Center
Tue 08:22:32 AM 42.2014 -76.1483 289° West 187 215 8,800 1,537 Climbing New York Center
Tue 08:23:32 AM 42.2211 -76.2144 292° West 197 227 10,400 946 Climbing New York Center
Tue 08:25:55 AM 42.2811 -76.3928 295° West 211 243 12,000 498 Climbing Cleveland Center
Tue 08:26:57 AM 42.3064 -76.4703 294° West 221 254 12,100 48 Climbing Cleveland Center
Tue 08:27:59 AM 42.3294 -76.5419 294° West 214 246 12,100  Level Cleveland Center
Tue 08:29:01 AM 42.3561 -76.6203 295° West 219 252 12,100  Level Cleveland Center
Tue 08:30:03 AM 42.3864 -76.7028 296° West 234 269 12,100  Level Cleveland Center
Tue 08:31:05 AM 42.4094 -76.7789 292° West 229 264 12,100  Level Cleveland Center
Tue 08:32:07 AM 42.4319 -76.8633 290° West 210 242 12,100  Level Cleveland Center
Tue 08:33:09 AM 42.4539 -76.9389 292° West 211 243 12,100  Level Cleveland Center
Tue 08:34:11 AM 42.4814 -77.0181 295° West 224 258 12,100  Level Cleveland Center
Tue 08:35:13 AM 42.5081 -77.0911 296° West 220 253 12,100 -48 Level Cleveland Center
Tue 08:36:15 AM 42.5297 -77.1661 291° West 216 249 12,000 -48 Descending Cleveland Center
Tue 08:37:17 AM 42.5561 -77.2414 295° West 220 253 12,000  Level Cleveland Center
Tue 08:38:19 AM 42.5858 -77.3300 295° West 217 250 12,000  Level Cleveland Center
Tue 08:39:21 AM 42.6103 -77.4053 294° West 218 251 12,000  Level Cleveland Center
Tue 08:40:23 AM 42.6356 -77.4792 295° West 217 250 12,000  Level Cleveland Center
Tue 08:41:25 AM 42.6603 -77.5536 294° West 217 250 12,000  Level Cleveland Center
Tue 08:42:27 AM 42.6856 -77.6292 294° West 220 253 12,000  Level Cleveland Center
Tue 08:43:29 AM 42.7081 -77.7036 292° West 214 246 12,000  Level Cleveland Center
Tue 08:44:31 AM 42.7317 -77.7792 293° West 217 250 12,000  Level Cleveland Center
Tue 08:45:33 AM 42.7581 -77.8686 292° West 213 245 12,000  Level Cleveland Center
Tue 08:46:35 AM 42.7869 -77.9419 298° West 213 245 12,000  Level Cleveland Center
Tue 08:47:37 AM 42.8186 -78.0161 300° West 216 249 12,000 -384 Level Cleveland Center
Tue 08:48:40 AM 42.8392 -78.0936 290° West 231 266 11,200 -624 Descending Cleveland Center
Tue 08:49:42 AM 42.8569 -78.1797 286° West 229 264 10,700 -919 Descending Cleveland Center
Tue 08:50:44 AM 42.8792 -78.2647 290° West 230 265 9,300 -1,306 Descending Cleveland Center
Tue 08:51:46 AM 42.9069 -78.3467 295° West 229 264 8,000 -1,452 Descending Cleveland Center
Tue 08:52:48 AM 42.9403 -78.4275 299° West 232 267 6,300 -1,887 Descending Cleveland Center
Tue 08:53:50 AM 42.9694 -78.5119 295° West 236 272 4,100 -1,463 Descending Cleveland Center
Tue 08:54:51 AM 42.9878 -78.5869 289° West 201 231 3,300 -624 Descending Cleveland Center
Tue 08:55:55 AM 42.9892 -78.6358 272° West 138 159 2,800 -730 Descending Cleveland Center
Tue 08:56:46 AM 42.9833 -78.6667 256° West 105 121 1,900 -865 Descending Buffalo TRACON
Tue 08:57:46 AM 42.9667 -78.7000 236° Southwest 108 124 1,200 -700 Descending Buffalo TRACON
Tue 08:59:00 AM 42.9333 -78.7167 294° West  Level FlightAware Approximate

Login

Don't have an account? Register now (free) for customized features, flight alerts, and more!